createdAt,value
2023-05-15T00:03:34.661Z,99094.34
2023-05-15T00:07:39.194Z,99095.19
2023-05-15T00:11:43.555Z,99087.22
2023-05-15T00:15:46.692Z,99086.28
2023-05-15T00:19:49.718Z,99071.25
2023-05-15T00:23:54.062Z,99065.03
2023-05-15T00:27:58.570Z,99060.59
2023-05-15T00:32:01.625Z,99080.09
2023-05-15T00:36:04.655Z,99063.28
2023-05-15T00:40:10.930Z,99050.06
2023-05-15T00:44:19.163Z,99043.88
2023-05-15T00:48:23.577Z,99050.91
2023-05-15T00:52:27.753Z,99042.97
2023-05-15T00:56:31.891Z,99032.28
2023-05-15T01:00:37.484Z,99027.03
2023-05-15T01:04:40.654Z,99012.94
2023-05-15T01:08:46.878Z,99007.72
2023-05-15T01:12:54.334Z,98997.22
2023-05-15T01:16:58.903Z,99008.69
2023-05-15T01:21:21.543Z,99006.09
2023-05-15T01:26:16.644Z,99024.59
2023-05-15T01:30:25.299Z,99031.69
2023-05-15T01:34:35.270Z,99029.91
2023-05-15T01:38:40.559Z,99031.63
2023-05-15T01:42:50.338Z,99033.34
2023-05-15T01:46:58.963Z,99030.72
2023-05-15T01:51:07.665Z,99031.63
2023-05-15T01:55:13.194Z,99027.22
2023-05-15T01:59:17.702Z,99033.41
2023-05-15T02:03:22.511Z,99026.41
2023-05-15T02:07:27.500Z,99022.84
2023-05-15T02:11:30.768Z,99031.69
2023-05-15T02:15:34.160Z,99024.66
2023-05-15T02:19:38.614Z,99021.16
2023-05-15T02:23:41.709Z,99012.41
2023-05-15T02:27:52.730Z,99011.56
2023-05-15T02:32:05.081Z,99009.81
2023-05-15T02:36:12.449Z,98995.72
2023-05-15T02:40:17.362Z,98993.88
2023-05-15T02:44:21.826Z,99006.16
2023-05-15T02:48:25.797Z,99004.41
2023-05-15T02:52:30.203Z,99001.78
2023-05-15T02:56:33.645Z,98999.16
2023-05-15T03:00:36.744Z,98993.00
2023-05-15T03:04:40.002Z,98993.88
2023-05-15T03:08:44.476Z,98985.94
2023-05-15T03:12:47.653Z,98981.50
2023-05-15T03:16:51.044Z,98977.19
2023-05-15T03:20:54.988Z,98974.50
2023-05-15T03:25:01.827Z,98978.00
2023-05-15T03:29:05.021Z,98975.31
2023-05-15T03:33:08.539Z,98969.97
2023-05-15T03:37:11.632Z,98978.81
2023-05-15T03:41:16.001Z,98979.69
2023-05-15T03:45:19.201Z,98980.63
2023-05-15T03:49:24.159Z,98985.91
2023-05-15T03:53:27.315Z,98985.91
2023-05-15T03:57:33.018Z,98987.66
2023-05-15T04:01:46.674Z,98980.63
2023-05-15T04:05:58.634Z,98987.63
2023-05-15T04:10:02.001Z,98989.38
2023-05-15T04:14:06.503Z,98998.19
2023-05-15T04:18:09.565Z,98992.91
2023-05-15T04:22:12.716Z,98987.66
2023-05-15T04:26:15.820Z,98991.16
2023-05-15T04:30:20.735Z,98993.72
2023-05-15T04:34:23.932Z,98997.13
2023-05-15T04:38:26.932Z,98983.84
2023-05-15T04:42:30.041Z,98982.94
2023-05-15T04:46:37.447Z,98986.50
2023-05-15T04:50:40.626Z,98986.47
2023-05-15T04:54:43.660Z,98977.69
2023-05-15T04:58:46.692Z,98982.97
2023-05-15T05:02:51.585Z,98987.47
2023-05-15T05:06:54.665Z,98983.94
2023-05-15T05:10:58.371Z,98985.75
2023-05-15T05:15:01.535Z,98986.69
2023-05-15T05:19:07.180Z,98989.31
2023-05-15T05:23:10.774Z,98994.63
2023-05-15T05:27:13.843Z,98992.06
2023-05-15T05:31:16.924Z,99004.44
2023-05-15T05:35:21.891Z,99005.31
2023-05-15T05:39:25.078Z,99012.34
2023-05-15T05:43:28.481Z,99009.72
2023-05-15T05:47:31.472Z,99007.97
2023-05-15T05:51:36.992Z,99002.81
2023-05-15T05:55:40.030Z,99012.66
2023-05-15T05:59:43.171Z,99008.28
2023-05-15T06:03:46.815Z,99011.78
2023-05-15T06:07:51.513Z,99012.59
2023-05-15T06:11:54.510Z,99004.63
2023-05-15T06:15:57.706Z,99017.81
2023-05-15T06:20:00.888Z,99020.38
2023-05-15T06:24:05.474Z,99022.03
2023-05-15T06:28:08.471Z,99020.13
2023-05-15T06:32:11.482Z,99020.88
2023-05-15T06:36:17.049Z,99026.09
2023-05-15T06:40:22.355Z,99025.16
2023-05-15T06:44:25.795Z,99032.97
2023-05-15T06:48:28.939Z,99032.16
2023-05-15T06:52:31.975Z,99042.72
2023-05-15T06:56:36.450Z,99039.09
2023-05-15T07:00:39.500Z,99039.94
2023-05-15T07:04:42.571Z,99053.13
2023-05-15T07:08:45.773Z,99054.88
2023-05-15T07:12:50.152Z,99062.69
2023-05-15T07:16:53.327Z,99066.09
2023-05-15T07:20:56.452Z,99061.63
2023-05-15T07:24:59.451Z,99078.53
2023-05-15T07:29:04.251Z,99073.38
2023-05-15T07:33:07.547Z,99063.66
2023-05-15T07:37:10.986Z,99076.81
2023-05-15T07:41:14.106Z,99077.69
2023-05-15T07:45:18.667Z,99077.69
2023-05-15T07:49:21.678Z,99085.53
2023-05-15T07:53:24.660Z,99085.31
2023-05-15T07:57:27.780Z,99092.13
2023-05-15T08:01:32.894Z,99091.09
2023-05-15T08:05:36.265Z,99085.72
2023-05-15T08:09:39.310Z,99094.25
2023-05-15T08:13:42.306Z,99087.63
2023-05-15T08:17:46.898Z,99088.06
2023-05-15T08:21:49.903Z,99085.75
2023-05-15T08:25:52.992Z,99081.91
2023-05-15T08:29:56.000Z,99082.41
2023-05-15T08:34:00.421Z,99090.28
2023-05-15T08:38:04.000Z,99082.25
2023-05-15T08:42:11.648Z,99094.38
2023-05-15T08:46:14.957Z,99097.50
2023-05-15T08:50:20.492Z,99091.72
2023-05-15T08:54:23.926Z,99105.81
2023-05-15T08:58:28.763Z,99106.94
2023-05-15T09:02:31.883Z,99112.47
2023-05-15T09:06:37.099Z,99105.00
2023-05-15T09:10:40.588Z,99111.50
2023-05-15T09:14:43.657Z,99119.59
2023-05-15T09:18:47.207Z,99113.63
2023-05-15T09:22:51.655Z,99130.63
2023-05-15T09:27:05.217Z,99134.66
2023-05-15T09:31:09.356Z,99130.81
2023-05-15T09:35:31.121Z,99131.16
2023-05-15T09:39:42.065Z,99131.34
2023-05-15T09:43:45.030Z,99124.75
2023-05-15T09:47:48.309Z,99125.03
2023-05-15T09:51:51.808Z,99121.25
2023-05-15T09:55:56.869Z,99123.00
2023-05-15T10:00:10.352Z,99130.84
2023-05-15T10:04:15.367Z,99126.75
2023-05-15T10:08:28.284Z,99137.56
2023-05-15T10:12:33.127Z,99129.66
2023-05-15T10:16:37.509Z,99121.06
2023-05-15T10:20:40.932Z,99123.63
2023-05-15T10:24:46.063Z,99123.44
2023-05-15T10:28:52.093Z,99118.59
2023-05-15T10:32:56.997Z,99134.34
2023-05-15T10:37:01.540Z,99124.63
2023-05-15T10:41:16.401Z,99124.25
2023-05-15T10:45:21.465Z,99112.13
2023-05-15T10:49:24.736Z,99110.34
2023-05-15T10:53:27.835Z,99110.69
2023-05-15T10:57:31.281Z,99112.84
2023-05-15T11:01:37.205Z,99110.19
2023-05-15T11:06:10.947Z,99111.84
2023-05-15T11:10:37.866Z,99105.84
2023-05-15T11:14:42.125Z,99109.41
2023-05-15T11:18:47.684Z,99095.88
2023-05-15T11:23:00.336Z,99101.72
2023-05-15T11:27:04.790Z,99090.78
2023-05-15T11:31:08.038Z,99089.72
2023-05-15T11:35:13.509Z,99081.50
2023-05-15T11:39:17.268Z,99075.53
2023-05-15T11:43:22.559Z,99065.97
2023-05-15T11:47:26.684Z,99078.41
2023-05-15T11:51:31.718Z,99078.66
2023-05-15T11:55:37.373Z,99081.75
2023-05-15T11:59:40.591Z,99081.03
2023-05-15T12:03:44.282Z,99097.19
2023-05-15T12:07:48.972Z,99085.44
2023-05-15T12:11:53.150Z,99089.31
2023-05-15T12:15:56.955Z,99097.13
2023-05-15T12:20:01.361Z,99091.97
2023-05-15T12:24:08.101Z,99080.63
2023-05-15T12:28:13.302Z,99086.81
2023-05-15T12:32:16.644Z,99072.63
2023-05-15T12:36:22.070Z,99072.78
2023-05-15T12:40:26.913Z,99083.47
2023-05-15T12:44:30.266Z,99082.25
2023-05-15T12:48:33.899Z,99074.53
2023-05-15T12:52:36.907Z,99074.00
2023-05-15T12:56:41.727Z,99080.56
2023-05-15T13:00:46.406Z,99083.09
2023-05-15T13:04:49.630Z,99073.59
2023-05-15T13:08:52.853Z,99075.63
2023-05-15T13:12:59.007Z,99073.59
2023-05-15T13:17:03.934Z,99077.09
2023-05-15T13:21:07.038Z,99081.03
2023-05-15T13:25:10.751Z,99083.28
2023-05-15T13:29:15.312Z,99086.78
2023-05-15T13:33:18.417Z,99096.44
2023-05-15T13:37:21.417Z,99093.75
2023-05-15T13:41:24.488Z,99088.59
2023-05-15T13:45:28.960Z,99093.22
2023-05-15T13:49:32.091Z,99088.66
2023-05-15T13:53:35.170Z,99100.06
2023-05-15T13:57:38.570Z,99115.34
2023-05-15T14:01:43.369Z,99095.25
2023-05-15T14:05:46.504Z,99096.22
2023-05-15T14:09:49.713Z,99099.91
2023-05-15T14:13:52.714Z,99092.53
2023-05-15T14:17:57.131Z,99083.94
2023-05-15T14:22:00.152Z,99086.13
2023-05-15T14:26:03.706Z,99091.66
2023-05-15T14:30:08.097Z,99090.41
2023-05-15T14:34:14.124Z,99089.47
2023-05-15T14:38:17.187Z,99090.63
2023-05-15T14:42:21.151Z,99085.22
2023-05-15T14:46:24.318Z,99090.56
2023-05-15T14:50:29.037Z,99087.47
2023-05-15T14:54:33.127Z,99083.88
2023-05-15T14:58:36.403Z,99098.03
2023-05-15T15:02:39.440Z,99099.16
2023-05-15T15:06:44.301Z,99102.88
2023-05-15T15:10:48.953Z,99102.44
2023-05-15T15:14:55.185Z,99104.72
2023-05-15T15:19:03.449Z,99112.13
2023-05-15T15:23:07.959Z,99112.63
2023-05-15T15:27:11.616Z,99108.38
2023-05-15T15:31:15.499Z,99115.97
2023-05-15T15:35:18.562Z,99115.06
2023-05-15T15:39:23.433Z,99109.72
2023-05-15T15:48:20.819Z,99107.19
2023-05-15T15:52:23.907Z,99096.50
2023-05-15T15:56:28.276Z,99107.97
2023-05-15T16:00:31.454Z,99117.06
2023-05-15T16:04:34.493Z,99101.28
2023-05-15T16:08:37.574Z,99110.31
2023-05-15T16:12:48.788Z,99101.50
2023-05-15T16:16:58.604Z,99111.44
2023-05-15T16:21:02.508Z,99112.34
2023-05-15T16:25:07.184Z,99117.75
2023-05-15T16:29:11.979Z,99120.47
2023-05-15T16:33:15.021Z,99129.53
2023-05-15T16:37:19.497Z,99126.19
2023-05-15T16:41:26.399Z,99129.88
2023-05-15T16:45:30.862Z,99129.88
2023-05-15T16:49:33.854Z,99139.66
2023-05-15T16:53:36.914Z,99146.09
2023-05-15T16:57:39.976Z,99141.03
2023-05-15T17:01:44.534Z,99153.50
2023-05-15T17:05:47.626Z,99152.72
2023-05-15T17:09:50.594Z,99162.56
2023-05-15T17:13:53.581Z,99162.66
2023-05-15T17:17:57.958Z,99172.59
2023-05-15T17:22:00.953Z,99171.84
2023-05-15T17:26:04.327Z,99181.75
2023-05-15T17:30:08.937Z,99182.84
2023-05-15T17:34:13.341Z,99187.47
2023-05-15T17:38:16.422Z,99187.59
2023-05-15T17:42:22.456Z,99206.22
2023-05-15T17:46:26.668Z,99208.09
2023-05-15T17:50:31.709Z,99204.63
2023-05-15T17:54:35.259Z,99213.75
2023-05-15T17:58:38.890Z,99213.97
2023-05-15T18:02:42.557Z,99223.00
2023-05-15T18:06:50.131Z,99220.53
2023-05-15T18:10:53.317Z,99217.16
2023-05-15T18:14:56.311Z,99229.81
2023-05-15T18:18:59.522Z,99233.53
2023-05-15T18:23:03.930Z,99238.94
2023-05-15T18:27:07.169Z,99230.19
2023-05-15T18:31:10.410Z,99233.94
2023-05-15T18:35:13.686Z,99239.59
2023-05-15T18:39:18.066Z,99241.59
2023-05-15T18:43:21.517Z,99243.56
2023-05-15T18:47:24.574Z,99243.88
2023-05-15T18:51:27.831Z,99241.59
2023-05-15T18:55:32.352Z,99236.41
2023-05-15T18:59:35.625Z,99239.19
2023-05-15T19:03:38.828Z,99241.97
2023-05-15T19:07:42.336Z,99242.97
2023-05-15T19:11:47.410Z,99243.06
2023-05-15T19:15:53.872Z,99243.13
2023-05-15T19:19:56.844Z,99240.66
2023-05-15T19:23:59.902Z,99249.63
2023-05-15T19:28:04.274Z,99252.50
2023-05-15T19:32:08.540Z,99253.53
2023-05-15T19:36:13.217Z,99246.56
2023-05-15T19:40:16.636Z,99253.78
2023-05-15T19:44:21.131Z,99252.16
2023-05-15T19:48:24.199Z,99261.22
2023-05-15T19:52:27.213Z,99255.19
2023-05-15T19:56:30.334Z,99257.94
2023-05-15T20:00:34.904Z,99255.50
2023-05-15T20:04:38.743Z,99253.84
2023-05-15T20:08:42.079Z,99253.13
2023-05-15T20:12:46.119Z,99264.75
2023-05-15T20:16:54.030Z,99267.56
2023-05-15T20:20:58.484Z,99274.69
2023-05-15T20:25:01.474Z,99276.59
2023-05-15T20:29:04.559Z,99275.81
2023-05-15T20:33:09.002Z,99282.97
2023-05-15T20:37:12.860Z,99280.41
2023-05-15T20:41:16.761Z,99282.31
2023-05-15T20:45:20.229Z,99282.50
2023-05-15T20:49:24.633Z,99274.63
2023-05-15T20:53:28.582Z,99275.59
2023-05-15T20:57:31.685Z,99288.94
2023-05-15T21:01:34.818Z,99293.50
2023-05-15T21:05:39.594Z,99283.88
2023-05-15T21:09:42.639Z,99279.50
2023-05-15T21:13:45.720Z,99276.88
2023-05-15T21:17:48.781Z,99279.56
2023-05-15T21:21:53.217Z,99279.69
2023-05-15T21:25:56.358Z,99263.84
2023-05-15T21:29:59.404Z,99275.34
2023-05-15T21:34:02.464Z,99284.28
2023-05-15T21:38:07.609Z,99283.47
2023-05-15T21:42:11.032Z,99287.97
2023-05-15T21:46:14.327Z,99285.41
2023-05-15T21:50:17.542Z,99293.44
2023-05-15T21:54:21.893Z,99299.81
2023-05-15T21:58:24.965Z,99305.16
2023-05-15T22:02:28.013Z,99312.34
2023-05-15T22:06:31.781Z,99317.75
2023-05-15T22:10:36.186Z,99325.75
2023-05-15T22:14:46.937Z,99335.59
2023-05-15T22:19:00.393Z,99330.28
2023-05-15T22:23:03.483Z,99334.72
2023-05-15T22:27:08.264Z,99323.22
2023-05-15T22:31:11.335Z,99324.19
2023-05-15T22:35:14.457Z,99329.59
2023-05-15T22:39:17.824Z,99331.44
2023-05-15T22:43:22.622Z,99338.63
2023-05-15T22:47:26.061Z,99329.88
2023-05-15T22:51:30.285Z,99329.84
2023-05-15T22:55:33.768Z,99328.97
2023-05-15T22:59:38.304Z,99336.94
2023-05-15T23:03:41.479Z,99336.88
2023-05-15T23:07:45.112Z,99335.97
2023-05-15T23:11:48.136Z,99323.66
2023-05-15T23:15:52.571Z,99322.78
2023-05-15T23:19:55.723Z,99322.84
2023-05-15T23:23:58.793Z,99320.13
2023-05-15T23:28:01.842Z,99325.38
2023-05-15T23:32:07.890Z,99331.56
2023-05-15T23:36:10.980Z,99328.94
2023-05-15T23:40:15.372Z,99326.31
2023-05-15T23:44:19.631Z,99331.63
2023-05-15T23:48:24.088Z,99328.16
2023-05-15T23:52:27.303Z,99325.53
2023-05-15T23:56:30.361Z,99314.94
